Terminal Aerodrome Forecast
Issued by NWS

Home | Current Version | Previous Version | Text Only | Print | Product List | Glossary On
Versions: 1 2 3 4 5 6 7 8 9 10 11 12 13 14 15 16 17 18 19 20 21 22 23 24 25 26 27 28 29 30 31 32 33 34 35 36 37 38 39 40 41 42 43 44 45 46 47 48 49 50
000
FTUS42 KMFL 240910 AAA
TAFTMB
TAF AMD
KTMB 240910Z 2409/2506 15004KT P6SM SCT007 BKN015
      TEMPO 2411/2413 SCT003 BKN007
     FM241600 17009KT P6SM SCT025 BKN035
     FM242000 17008KT P6SM SCT030
     FM250400 VRB04KT P6SM SCT015 BKN035=

USA.gov is the U.S. government's official web portal to all federal, state and local government web resources and services.